createdAt,value
2022-09-15T00:01:45.798Z,11.31
2022-09-15T00:04:13.601Z,11.31
2022-09-15T00:06:41.359Z,11.30
2022-09-15T00:09:09.459Z,11.32
2022-09-15T00:11:38.056Z,11.31
2022-09-15T00:14:09.135Z,11.28
2022-09-15T00:16:37.490Z,11.27
2022-09-15T00:19:07.473Z,11.24
2022-09-15T00:24:28.762Z,11.20
2022-09-15T00:26:56.816Z,11.17
2022-09-15T00:29:24.626Z,11.15
2022-09-15T00:34:46.117Z,11.09
2022-09-15T00:37:13.963Z,11.04
2022-09-15T00:39:41.742Z,11.02
2022-09-15T00:42:15.064Z,10.99
2022-09-15T00:44:50.878Z,10.98
2022-09-15T00:47:21.405Z,10.98
2022-09-15T00:49:58.796Z,10.97
2022-09-15T00:52:32.530Z,10.92
2022-09-15T00:55:04.088Z,10.90
2022-09-15T00:57:36.690Z,10.87
2022-09-15T01:00:13.292Z,10.83
2022-09-15T01:02:43.369Z,10.80
2022-09-15T01:05:16.627Z,10.77
2022-09-15T01:07:47.958Z,10.76
2022-09-15T01:10:20.912Z,10.72
2022-09-15T01:12:48.932Z,10.74
2022-09-15T01:15:17.320Z,10.72
2022-09-15T01:18:11.553Z,10.73
2022-09-15T01:21:01.027Z,10.71
2022-09-15T01:23:46.858Z,10.67
2022-09-15T01:26:58.140Z,10.65
2022-09-15T01:30:10.566Z,10.67
2022-09-15T01:33:07.152Z,10.71
2022-09-15T01:35:44.848Z,10.74
2022-09-15T01:38:21.386Z,10.76
2022-09-15T01:40:53.964Z,10.80
2022-09-15T01:43:23.376Z,10.83
2022-09-15T01:45:53.480Z,10.85
2022-09-15T01:48:25.725Z,10.88
2022-09-15T01:50:56.953Z,10.90
2022-09-15T01:53:25.639Z,10.91
2022-09-15T01:55:57.244Z,10.91
2022-09-15T01:58:25.137Z,10.92
2022-09-15T02:00:58.211Z,10.94
2022-09-15T02:03:34.996Z,10.94
2022-09-15T02:06:07.626Z,10.96
2022-09-15T02:08:42.781Z,10.97
2022-09-15T02:11:17.402Z,10.98
2022-09-15T02:13:57.294Z,11.02
2022-09-15T02:16:28.629Z,11.04
2022-09-15T02:19:20.243Z,11.06
2022-09-15T02:21:58.544Z,11.08
2022-09-15T02:24:32.873Z,11.09
2022-09-15T02:27:04.298Z,11.12
2022-09-15T02:29:37.261Z,11.14
2022-09-15T02:32:07.630Z,11.17
2022-09-15T02:34:41.367Z,11.19
2022-09-15T02:37:11.504Z,11.21
2022-09-15T02:39:44.569Z,11.22
2022-09-15T02:45:06.072Z,11.26
2022-09-15T02:47:33.911Z,11.28
2022-09-15T02:50:04.067Z,11.30
2022-09-15T02:52:31.927Z,11.30
2022-09-15T02:55:01.127Z,11.32
2022-09-15T02:57:28.909Z,11.34
2022-09-15T03:00:14.941Z,11.38
2022-09-15T03:02:45.431Z,11.42
2022-09-15T03:05:16.444Z,11.45
2022-09-15T03:07:44.562Z,11.46
2022-09-15T03:10:13.774Z,11.48
2022-09-15T03:12:43.084Z,11.51
2022-09-15T03:15:12.873Z,11.52
2022-09-15T03:17:42.847Z,11.54
2022-09-15T03:20:12.648Z,11.56
2022-09-15T03:22:42.052Z,11.58
2022-09-15T03:25:10.579Z,11.60
2022-09-15T03:27:38.719Z,11.61
2022-09-15T03:30:08.545Z,11.62
2022-09-15T03:32:36.515Z,11.63
2022-09-15T03:35:05.221Z,11.63
2022-09-15T03:37:33.794Z,11.63
2022-09-15T03:40:04.654Z,11.63
2022-09-15T03:42:38.406Z,11.61
2022-09-15T03:45:07.887Z,11.61
2022-09-15T03:47:35.670Z,11.61
2022-09-15T03:50:03.542Z,11.61
2022-09-15T03:52:32.439Z,11.59
2022-09-15T03:55:00.532Z,11.54
2022-09-15T03:57:29.649Z,11.51
2022-09-15T03:59:57.585Z,11.49
2022-09-15T04:02:25.508Z,11.49
2022-09-15T04:04:53.489Z,11.50
2022-09-15T04:07:21.276Z,11.51
2022-09-15T04:09:49.214Z,11.51
2022-09-15T04:12:17.242Z,11.52
2022-09-15T04:14:46.942Z,11.56
2022-09-15T04:17:15.550Z,11.57
2022-09-15T04:19:43.392Z,11.59
2022-09-15T04:22:15.523Z,11.61
2022-09-15T04:24:45.651Z,11.64
2022-09-15T04:27:13.536Z,11.66
2022-09-15T04:29:41.826Z,11.67
2022-09-15T04:32:11.245Z,11.69
2022-09-15T04:37:31.009Z,11.68
2022-09-15T04:39:59.078Z,11.67
2022-09-15T04:42:26.980Z,11.67
2022-09-15T04:44:54.914Z,11.69
2022-09-15T04:47:24.055Z,11.69
2022-09-15T04:49:52.056Z,11.71
2022-09-15T04:52:19.890Z,11.74
2022-09-15T04:54:47.896Z,11.75
2022-09-15T04:57:15.902Z,11.76
2022-09-15T04:59:43.680Z,11.77
2022-09-15T05:02:11.614Z,11.78
2022-09-15T05:04:40.840Z,11.79
2022-09-15T05:07:08.634Z,11.81
2022-09-15T05:09:36.486Z,11.81
2022-09-15T05:12:04.263Z,11.81
2022-09-15T05:14:32.287Z,11.82
2022-09-15T05:17:00.258Z,11.82
2022-09-15T05:19:28.013Z,11.81
2022-09-15T05:21:57.213Z,11.80
2022-09-15T05:24:24.962Z,11.79
2022-09-15T05:27:17.625Z,11.80
2022-09-15T05:29:45.512Z,11.81
2022-09-15T05:32:13.318Z,11.84
2022-09-15T05:34:41.327Z,11.82
2022-09-15T05:37:10.866Z,11.84
2022-09-15T05:39:41.008Z,11.85
2022-09-15T05:42:10.766Z,11.87
2022-09-15T05:44:38.641Z,11.88
2022-09-15T05:47:06.974Z,11.87
2022-09-15T05:49:35.058Z,11.86
2022-09-15T05:52:03.722Z,11.86
2022-09-15T05:54:32.857Z,11.85
2022-09-15T05:57:00.655Z,11.81
2022-09-15T05:59:28.623Z,11.80
2022-09-15T06:01:56.419Z,11.78
2022-09-15T06:04:24.380Z,11.78
2022-09-15T06:06:52.307Z,11.80
2022-09-15T06:09:20.076Z,11.84
2022-09-15T06:11:49.228Z,11.88
2022-09-15T06:14:17.191Z,11.92
2022-09-15T06:16:45.064Z,11.95
2022-09-15T06:19:12.809Z,11.99
2022-09-15T06:21:43.842Z,12.03
2022-09-15T06:24:13.210Z,12.05
2022-09-15T06:26:40.995Z,12.07
2022-09-15T06:29:13.745Z,12.10
2022-09-15T06:31:41.643Z,12.15
2022-09-15T06:34:13.625Z,12.21
2022-09-15T06:36:41.482Z,12.25
2022-09-15T06:39:09.782Z,12.29
2022-09-15T06:42:01.288Z,12.34
2022-09-15T06:44:30.863Z,12.36
2022-09-15T06:46:58.756Z,12.38
2022-09-15T06:49:26.616Z,12.40
2022-09-15T06:51:54.382Z,12.38
2022-09-15T06:54:22.170Z,12.37
2022-09-15T06:56:50.472Z,12.38
2022-09-15T06:59:18.261Z,12.41
2022-09-15T07:01:47.494Z,12.42
2022-09-15T07:04:15.270Z,12.43
2022-09-15T07:06:43.035Z,12.43
2022-09-15T07:09:12.192Z,12.45
2022-09-15T07:11:39.905Z,12.48
2022-09-15T07:14:07.875Z,12.46
2022-09-15T07:16:35.737Z,12.52
2022-09-15T07:19:05.921Z,12.56
2022-09-15T07:21:35.630Z,12.59
2022-09-15T07:24:06.970Z,12.62
2022-09-15T07:26:35.734Z,12.64
2022-09-15T07:29:06.152Z,12.64
2022-09-15T07:34:58.240Z,12.65
2022-09-15T07:37:26.462Z,12.66
2022-09-15T07:39:54.268Z,12.66
2022-09-15T07:42:22.085Z,12.70
2022-09-15T07:44:50.246Z,12.72
2022-09-15T07:47:18.279Z,12.77
2022-09-15T07:49:46.054Z,12.80
2022-09-15T07:52:15.623Z,12.82
2022-09-15T07:54:43.347Z,12.84
2022-09-15T07:57:11.287Z,12.83
2022-09-15T07:59:41.188Z,12.88
2022-09-15T08:02:17.254Z,12.92
2022-09-15T08:04:45.377Z,12.98
2022-09-15T08:07:13.637Z,12.91
2022-09-15T08:09:42.779Z,12.93
2022-09-15T08:12:10.556Z,12.96
2022-09-15T08:14:38.392Z,12.97
2022-09-15T08:17:11.271Z,13.04
2022-09-15T08:19:39.453Z,13.09
2022-09-15T08:22:07.323Z,13.12
2022-09-15T08:24:37.281Z,13.12
2022-09-15T08:27:06.568Z,13.17
2022-09-15T08:29:34.625Z,13.21
2022-09-15T08:32:03.832Z,13.30
2022-09-15T08:34:31.757Z,13.33
2022-09-15T08:36:59.533Z,13.40
2022-09-15T08:39:27.525Z,13.39
2022-09-15T08:41:56.360Z,13.43
2022-09-15T08:44:36.544Z,13.45
2022-09-15T08:47:11.186Z,13.45
2022-09-15T08:49:51.889Z,13.48
2022-09-15T08:52:24.322Z,13.48
2022-09-15T08:54:58.091Z,13.44
2022-09-15T08:57:27.002Z,13.45
2022-09-15T08:59:59.080Z,13.51
2022-09-15T09:02:48.189Z,13.56
2022-09-15T09:05:32.670Z,13.57
2022-09-15T09:08:14.811Z,13.63
2022-09-15T09:10:50.358Z,13.65
2022-09-15T09:13:33.316Z,13.69
2022-09-15T09:16:20.681Z,13.73
2022-09-15T09:19:16.009Z,13.84
2022-09-15T09:21:48.028Z,13.90
2022-09-15T09:24:18.237Z,13.97
2022-09-15T09:26:51.165Z,14.00
2022-09-15T09:29:20.993Z,14.00
2022-09-15T09:31:52.101Z,14.00
2022-09-15T09:34:28.949Z,14.06
2022-09-15T09:37:00.437Z,14.09
2022-09-15T09:39:29.380Z,14.16
2022-09-15T09:41:57.398Z,14.20
2022-09-15T09:44:31.897Z,14.21
2022-09-15T09:47:02.679Z,14.22
2022-09-15T09:49:35.432Z,14.25
2022-09-15T09:52:04.624Z,14.31
2022-09-15T09:54:35.509Z,14.35
2022-09-15T09:57:24.225Z,14.38
2022-09-15T09:59:52.563Z,14.43
2022-09-15T10:02:24.682Z,14.51
2022-09-15T10:04:54.587Z,14.50
2022-09-15T10:07:25.830Z,14.55
2022-09-15T10:10:27.100Z,14.60
2022-09-15T10:13:21.004Z,14.67
2022-09-15T10:42:49.156Z,14.88
2022-09-15T11:24:11.723Z,15.79
2022-09-15T11:35:11.375Z,15.51
2022-09-15T11:41:21.193Z,15.26
2022-09-15T11:47:44.985Z,15.22
2022-09-15T11:57:00.537Z,15.51
2022-09-15T12:06:18.290Z,15.46
2022-09-15T12:15:53.531Z,15.53
2022-09-15T12:21:54.904Z,15.90
2022-09-15T12:31:38.400Z,16.28
2022-09-15T12:34:23.160Z,16.37
2022-09-15T12:36:53.378Z,16.55
2022-09-15T12:39:37.549Z,16.55
2022-09-15T12:42:12.103Z,16.57
2022-09-15T12:44:45.675Z,16.52
2022-09-15T12:47:24.296Z,16.41
2022-09-15T12:49:54.959Z,16.34
2022-09-15T12:52:25.233Z,16.20
2022-09-15T12:54:57.193Z,16.20
2022-09-15T12:57:29.371Z,16.19
2022-09-15T13:00:45.503Z,16.21
2022-09-15T13:03:50.749Z,16.20
2022-09-15T13:06:22.787Z,16.20
2022-09-15T13:09:13.043Z,16.23
2022-09-15T13:14:22.308Z,16.35
2022-09-15T13:16:55.644Z,16.47
2022-09-15T13:19:26.594Z,16.64
2022-09-15T13:22:02.943Z,16.72
2022-09-15T13:24:43.133Z,17.00
2022-09-15T13:27:12.423Z,17.28
2022-09-15T13:29:49.115Z,17.48
2022-09-15T13:32:33.869Z,17.43
2022-09-15T13:35:22.865Z,17.33
2022-09-15T13:38:31.849Z,17.41
2022-09-15T13:41:42.823Z,17.61
2022-09-15T13:44:55.722Z,17.83
2022-09-15T13:47:49.560Z,17.82
2022-09-15T13:50:24.815Z,17.85
2022-09-15T13:53:21.600Z,17.72
2022-09-15T13:55:51.834Z,17.61
2022-09-15T14:01:12.461Z,17.85
2022-09-15T14:03:44.740Z,18.13
2022-09-15T14:06:20.238Z,18.28
2022-09-15T14:08:53.733Z,18.46
2022-09-15T14:11:34.696Z,18.54
2022-09-15T14:14:02.998Z,18.65
2022-09-15T14:16:34.835Z,18.77
2022-09-15T14:19:05.815Z,18.74
2022-09-15T14:21:35.012Z,18.57
2022-09-15T14:24:06.356Z,18.48
2022-09-15T14:26:37.565Z,18.38
2022-09-15T14:29:07.942Z,18.29
2022-09-15T14:31:38.506Z,18.12
2022-09-15T14:34:14.595Z,18.09
2022-09-15T14:36:42.665Z,18.09
2022-09-15T14:39:22.903Z,18.07
2022-09-15T14:41:52.542Z,18.01
2022-09-15T14:47:13.646Z,17.70
2022-09-15T14:49:41.460Z,17.55
2022-09-15T14:52:25.171Z,17.36
2022-09-15T14:54:59.413Z,17.27
2022-09-15T14:57:32.945Z,17.23
2022-09-15T15:00:10.655Z,17.35
2022-09-15T15:02:51.741Z,17.55
2022-09-15T15:05:25.498Z,17.71
2022-09-15T15:07:55.282Z,17.86
2022-09-15T15:10:25.793Z,17.82
2022-09-15T15:12:58.205Z,17.85
2022-09-15T15:15:26.286Z,17.87
2022-09-15T15:17:55.369Z,17.83
2022-09-15T15:20:25.484Z,17.74
2022-09-15T15:23:15.387Z,17.56
2022-09-15T15:25:43.726Z,17.48
2022-09-15T15:28:31.861Z,17.47
2022-09-15T15:31:15.479Z,17.38
2022-09-15T15:33:48.552Z,17.25
2022-09-15T15:36:21.006Z,17.17
2022-09-15T15:38:52.272Z,17.08
2022-09-15T15:41:23.381Z,17.01
2022-09-15T15:44:03.288Z,16.94
2022-09-15T15:46:51.598Z,16.80
2022-09-15T15:49:20.820Z,16.70
2022-09-15T15:51:48.902Z,16.61
2022-09-15T15:54:16.638Z,16.51
2022-09-15T15:56:44.448Z,16.50
2022-09-15T15:59:15.227Z,16.46
2022-09-15T16:01:43.677Z,16.43
2022-09-15T16:04:13.168Z,16.39
2022-09-15T16:06:42.361Z,16.37
2022-09-15T16:09:10.891Z,16.38
2022-09-15T16:11:38.655Z,16.43
2022-09-15T16:14:06.450Z,16.47
2022-09-15T16:16:35.701Z,16.52
2022-09-15T16:19:03.909Z,16.52
2022-09-15T16:21:37.271Z,16.48
2022-09-15T16:24:05.892Z,16.44
2022-09-15T16:26:35.466Z,16.36
2022-09-15T16:29:03.262Z,16.35
2022-09-15T16:31:31.667Z,16.30
2022-09-15T16:34:00.935Z,16.20
2022-09-15T16:36:29.024Z,16.13
2022-09-15T16:39:22.263Z,16.03
2022-09-15T16:41:52.420Z,15.95
2022-09-15T16:44:21.879Z,15.88
2022-09-15T16:46:49.730Z,15.81
2022-09-15T16:49:20.899Z,15.70
2022-09-15T16:51:48.967Z,15.63
2022-09-15T16:54:18.138Z,15.56
2022-09-15T16:56:46.470Z,15.53
2022-09-15T16:59:14.513Z,15.47
2022-09-15T17:01:42.420Z,15.42
2022-09-15T17:04:13.726Z,15.40
2022-09-15T17:06:43.085Z,15.36
2022-09-15T17:09:10.872Z,15.34
2022-09-15T17:11:38.896Z,15.31
2022-09-15T17:14:07.145Z,15.30
2022-09-15T17:16:35.025Z,15.28
2022-09-15T17:19:02.795Z,15.25
2022-09-15T17:21:30.613Z,15.22
2022-09-15T17:23:59.768Z,15.21
2022-09-15T17:26:31.160Z,15.18
2022-09-15T17:28:59.562Z,15.16
2022-09-15T17:31:27.940Z,15.14
2022-09-15T17:33:56.079Z,15.12
2022-09-15T17:36:23.968Z,15.10
2022-09-15T17:38:51.808Z,15.09
2022-09-15T17:41:22.762Z,15.07
2022-09-15T17:43:50.795Z,15.04
2022-09-15T17:46:18.815Z,15.01
2022-09-15T17:48:46.656Z,14.99
2022-09-15T17:51:18.023Z,14.98
2022-09-15T17:53:47.621Z,14.96
2022-09-15T17:56:15.426Z,14.95
2022-09-15T17:58:44.667Z,14.94
2022-09-15T18:01:14.655Z,14.93
2022-09-15T18:03:44.845Z,14.96
2022-09-15T18:06:13.485Z,14.95
2022-09-15T18:08:41.467Z,14.93
2022-09-15T18:11:09.387Z,14.89
2022-09-15T18:13:37.939Z,14.88
2022-09-15T18:16:12.276Z,14.83
2022-09-15T18:18:40.959Z,14.78
2022-09-15T18:21:11.709Z,14.73
2022-09-15T18:23:44.548Z,14.67
2022-09-15T18:26:12.473Z,14.63
2022-09-15T18:28:40.209Z,14.59
2022-09-15T18:31:13.812Z,14.54
2022-09-15T18:33:41.710Z,14.52
2022-09-15T18:36:10.731Z,14.49
2022-09-15T18:38:38.523Z,14.45
2022-09-15T18:41:11.681Z,14.42
2022-09-15T18:44:04.545Z,14.36
2022-09-15T18:46:33.820Z,14.33
2022-09-15T18:49:02.809Z,14.30
2022-09-15T18:51:51.136Z,14.26
2022-09-15T18:54:19.874Z,14.18
2022-09-15T18:56:47.864Z,14.14
2022-09-15T18:59:17.649Z,14.08
2022-09-15T19:01:47.139Z,14.05
2022-09-15T19:04:15.129Z,14.01
2022-09-15T19:06:42.935Z,13.96
2022-09-15T19:09:10.878Z,13.96
2022-09-15T19:11:38.870Z,13.92
2022-09-15T19:14:07.680Z,13.87
2022-09-15T19:16:56.431Z,13.82
2022-09-15T19:19:25.691Z,13.81
2022-09-15T19:21:53.499Z,13.77
2022-09-15T19:24:21.485Z,13.73
2022-09-15T19:26:49.455Z,13.70
2022-09-15T19:29:17.847Z,13.69
2022-09-15T19:31:50.532Z,13.68
2022-09-15T19:34:18.445Z,13.67
2022-09-15T19:36:47.838Z,13.65
2022-09-15T19:39:15.729Z,13.62
2022-09-15T19:41:43.555Z,13.61
2022-09-15T19:44:11.468Z,13.58
2022-09-15T19:46:39.321Z,13.55
2022-09-15T19:49:07.910Z,13.52
2022-09-15T19:51:35.726Z,13.44
2022-09-15T19:54:05.533Z,13.37
2022-09-15T19:56:33.498Z,13.29
2022-09-15T19:59:01.859Z,13.22
2022-09-15T20:01:32.578Z,13.15
2022-09-15T20:04:01.892Z,13.08
2022-09-15T20:06:32.677Z,13.02
2022-09-15T20:09:00.960Z,12.96
2022-09-15T20:11:31.214Z,12.89
2022-09-15T20:13:59.178Z,12.85
2022-09-15T20:16:27.167Z,12.79
2022-09-15T20:18:55.919Z,12.73
2022-09-15T20:21:45.922Z,12.69
2022-09-15T20:24:14.038Z,12.62
2022-09-15T20:26:43.510Z,12.57
2022-09-15T20:29:12.099Z,12.49
2022-09-15T20:31:40.063Z,12.45
2022-09-15T20:34:08.343Z,12.41
2022-09-15T20:36:38.756Z,12.37
2022-09-15T20:39:09.311Z,12.34
2022-09-15T20:41:37.949Z,12.31
2022-09-15T20:44:09.281Z,12.26
2022-09-15T20:46:42.256Z,12.20
2022-09-15T20:49:11.742Z,12.14
2022-09-15T20:51:40.402Z,12.09
2022-09-15T20:54:08.355Z,12.04
2022-09-15T20:56:37.323Z,11.98
2022-09-15T20:59:10.261Z,11.93
2022-09-15T21:01:39.957Z,11.89
2022-09-15T21:04:10.061Z,11.87
2022-09-15T21:06:38.609Z,11.85
2022-09-15T21:09:06.836Z,11.82
2022-09-15T21:11:34.940Z,11.83
2022-09-15T21:14:03.386Z,11.80
2022-09-15T21:16:33.932Z,11.78
2022-09-15T21:19:01.959Z,11.78
2022-09-15T21:21:31.228Z,11.77
2022-09-15T21:24:03.556Z,11.78
2022-09-15T21:26:33.331Z,11.79
2022-09-15T21:29:01.811Z,11.80
2022-09-15T21:31:33.046Z,11.81
2022-09-15T21:34:06.306Z,11.82
2022-09-15T21:36:34.440Z,11.82
2022-09-15T21:39:02.901Z,11.79
2022-09-15T21:41:31.715Z,11.80
2022-09-15T21:44:01.076Z,11.76
2022-09-15T21:46:31.029Z,11.75
2022-09-15T21:49:01.563Z,11.77
2022-09-15T21:51:30.933Z,11.76
2022-09-15T21:54:00.377Z,11.75
2022-09-15T21:56:30.796Z,11.73
2022-09-15T21:58:59.017Z,11.68
2022-09-15T22:01:33.349Z,11.66
2022-09-15T22:06:40.339Z,11.55
2022-09-15T22:09:10.302Z,11.49
2022-09-15T22:11:38.540Z,11.45
2022-09-15T22:14:08.317Z,11.41
2022-09-15T22:16:38.012Z,11.39
2022-09-15T22:19:07.006Z,11.37
2022-09-15T22:21:39.620Z,11.34
2022-09-15T22:24:08.323Z,11.34
2022-09-15T22:26:38.785Z,11.37
2022-09-15T22:29:07.557Z,11.40
2022-09-15T22:31:36.727Z,11.41
2022-09-15T22:34:05.079Z,11.41
2022-09-15T22:36:34.113Z,11.37
2022-09-15T22:39:05.739Z,11.38
2022-09-15T22:41:36.452Z,11.39
2022-09-15T22:44:05.504Z,11.42
2022-09-15T22:46:34.125Z,11.46
2022-09-15T22:49:02.432Z,11.47
2022-09-15T22:51:30.573Z,11.49
2022-09-15T22:53:59.451Z,11.48
2022-09-15T22:56:29.163Z,11.47
2022-09-15T22:58:57.795Z,11.47
2022-09-15T23:01:28.149Z,11.47
2022-09-15T23:03:57.728Z,11.46
2022-09-15T23:06:27.516Z,11.45
2022-09-15T23:08:58.218Z,11.45
2022-09-15T23:11:29.965Z,11.46
2022-09-15T23:13:58.830Z,11.46
2022-09-15T23:16:28.556Z,11.45
2022-09-15T23:18:56.499Z,11.46
2022-09-15T23:21:24.511Z,11.50
2022-09-15T23:23:55.169Z,11.50
2022-09-15T23:26:25.245Z,11.51
2022-09-15T23:28:55.098Z,11.51
2022-09-15T23:31:24.235Z,11.53
2022-09-15T23:33:52.291Z,11.56
2022-09-15T23:36:20.587Z,11.53
2022-09-15T23:38:49.690Z,11.52
2022-09-15T23:41:19.056Z,11.54
2022-09-15T23:43:47.506Z,11.54
2022-09-15T23:46:17.996Z,11.51
2022-09-15T23:48:49.337Z,11.50
2022-09-15T23:51:17.443Z,11.48
2022-09-15T23:53:45.583Z,11.48
2022-09-15T23:56:14.098Z,11.47
2022-09-15T23:58:42.319Z,11.44
